createdAt,value
2022-08-19T00:00:46.420Z,2.17
2022-08-19T00:03:13.122Z,2.70
2022-08-19T00:05:39.846Z,2.78
2022-08-19T00:08:06.549Z,4.25
2022-08-19T00:10:33.422Z,14.38
2022-08-19T00:13:00.127Z,2.70
2022-08-19T00:15:26.942Z,2.88
2022-08-19T00:17:53.646Z,0.68
2022-08-19T00:20:21.339Z,7.85
2022-08-19T00:22:48.323Z,1.55
2022-08-19T00:25:15.756Z,12.60
2022-08-19T00:27:43.627Z,6.00
2022-08-19T00:30:11.182Z,4.35
2022-08-19T00:32:38.140Z,1.58
2022-08-19T00:35:05.400Z,2.08
2022-08-19T00:37:32.093Z,2.33
2022-08-19T00:39:58.866Z,0.80
2022-08-19T00:42:25.609Z,1.40
2022-08-19T00:44:52.374Z,1.25
2022-08-19T00:47:19.126Z,2.67
2022-08-19T00:49:52.840Z,3.28
2022-08-19T00:52:26.477Z,3.75
2022-08-19T00:54:53.191Z,1.75
2022-08-19T00:57:21.888Z,2.25
2022-08-19T01:00:01.128Z,11.02
2022-08-19T01:02:29.339Z,4.88
2022-08-19T01:04:56.069Z,13.07
2022-08-19T01:07:22.794Z,2.20
2022-08-19T01:09:50.745Z,3.08
2022-08-19T01:12:17.477Z,0.63
2022-08-19T01:14:44.186Z,4.88
2022-08-19T01:17:11.124Z,5.43
2022-08-19T01:19:44.124Z,2.53
2022-08-19T01:22:49.123Z,4.10
2022-08-19T01:25:17.526Z,2.60
2022-08-19T01:27:45.720Z,2.67
2022-08-19T01:30:18.362Z,1.73
2022-08-19T01:32:45.062Z,2.40
2022-08-19T01:35:12.298Z,0.95
2022-08-19T01:37:55.062Z,3.47
2022-08-19T01:40:23.299Z,3.83
2022-08-19T01:42:50.459Z,0.88
2022-08-19T01:45:18.162Z,1.65
2022-08-19T01:47:44.922Z,3.40
2022-08-19T01:50:24.885Z,5.75
2022-08-19T01:53:01.240Z,2.05
2022-08-19T01:55:29.265Z,1.88
2022-08-19T01:57:58.006Z,2.78
2022-08-19T02:00:25.407Z,3.80
2022-08-19T02:02:52.495Z,1.70
2022-08-19T02:05:19.398Z,2.90
2022-08-19T02:07:46.097Z,1.67
2022-08-19T02:10:18.715Z,3.45
2022-08-19T02:12:45.503Z,2.85
2022-08-19T02:15:14.729Z,1.90
2022-08-19T02:17:42.108Z,1.40
2022-08-19T02:20:09.494Z,2.33
2022-08-19T02:22:36.214Z,7.22
2022-08-19T02:25:03.042Z,1.92
2022-08-19T02:27:29.744Z,3.35
2022-08-19T02:29:56.431Z,3.05
2022-08-19T02:32:23.137Z,1.52
2022-08-19T02:34:49.838Z,3.97
2022-08-19T02:37:16.543Z,13.18
2022-08-19T02:39:43.394Z,2.35
2022-08-19T02:42:10.131Z,2.70
2022-08-19T02:44:36.829Z,2.88
2022-08-19T02:47:03.697Z,2.40
2022-08-19T02:49:34.704Z,3.47
2022-08-19T02:52:02.456Z,7.05
2022-08-19T02:54:30.017Z,6.03
2022-08-19T02:56:56.726Z,5.13
2022-08-19T02:59:23.429Z,3.15
2022-08-19T03:01:50.191Z,1.95
2022-08-19T03:04:17.155Z,4.55
2022-08-19T03:06:45.165Z,2.40
2022-08-19T03:09:12.370Z,2.33
2022-08-19T03:11:39.385Z,4.47
2022-08-19T03:14:06.827Z,2.95
2022-08-19T03:16:35.936Z,2.17
2022-08-19T03:19:02.739Z,2.47
2022-08-19T03:21:33.187Z,2.58
2022-08-19T03:24:02.314Z,5.80
2022-08-19T03:26:29.212Z,4.85
2022-08-19T03:28:57.823Z,2.72
2022-08-19T03:31:43.806Z,4.13
2022-08-19T03:34:14.778Z,2.33
2022-08-19T03:36:41.634Z,1.58
2022-08-19T03:39:08.390Z,6.95
2022-08-19T03:41:45.554Z,3.10
2022-08-19T03:44:25.096Z,19.35
2022-08-19T03:46:54.443Z,3.33
2022-08-19T03:49:21.815Z,2.33
2022-08-19T03:51:55.709Z,4.78
2022-08-19T03:54:23.317Z,19.75
2022-08-19T03:56:50.857Z,2.78
2022-08-19T03:59:20.428Z,2.08
2022-08-19T04:01:47.176Z,8.32
2022-08-19T04:04:13.872Z,1.25
2022-08-19T04:06:40.594Z,2.42
2022-08-19T04:09:11.074Z,1.13
2022-08-19T04:11:46.869Z,2.15
2022-08-19T04:14:15.572Z,5.20
2022-08-19T04:16:42.862Z,5.90
2022-08-19T04:19:09.566Z,2.28
2022-08-19T04:21:36.288Z,5.72
2022-08-19T04:24:03.856Z,3.90
2022-08-19T04:26:35.222Z,7.43
2022-08-19T04:29:03.246Z,12.32
2022-08-19T04:31:31.183Z,4.75
2022-08-19T04:33:59.073Z,5.80
2022-08-19T04:36:30.418Z,3.55
2022-08-19T04:38:58.518Z,13.90
2022-08-19T04:41:25.561Z,9.60
2022-08-19T04:43:52.685Z,1.27
2022-08-19T04:46:39.036Z,4.45
2022-08-19T04:49:13.172Z,16.27
2022-08-19T04:51:42.267Z,10.23
2022-08-19T04:54:08.982Z,44.65
2022-08-19T04:56:35.843Z,5.25
2022-08-19T04:59:02.537Z,4.20
2022-08-19T05:01:29.534Z,5.65
2022-08-19T05:03:57.321Z,14.20
2022-08-19T05:06:24.513Z,1.05
2022-08-19T05:08:51.353Z,2.72
2022-08-19T05:11:26.426Z,14.90
2022-08-19T05:13:53.457Z,4.75
2022-08-19T05:16:22.002Z,3.05
2022-08-19T05:18:48.759Z,2.85
2022-08-19T05:21:17.452Z,11.50
2022-08-19T05:23:44.493Z,7.65
2022-08-19T05:26:11.260Z,3.72
2022-08-19T05:28:37.963Z,5.97
2022-08-19T05:31:04.833Z,18.15
2022-08-19T05:33:31.565Z,3.53
2022-08-19T05:35:58.289Z,1.35
2022-08-19T05:38:25.037Z,3.42
2022-08-19T05:40:51.765Z,3.17
2022-08-19T05:43:18.457Z,2.35
2022-08-19T05:45:45.335Z,8.30
2022-08-19T05:48:12.316Z,4.05
2022-08-19T05:50:40.357Z,22.42
2022-08-19T05:53:07.069Z,10.43
2022-08-19T05:55:34.024Z,5.05
2022-08-19T05:58:00.745Z,5.88
2022-08-19T06:00:27.507Z,6.43
2022-08-19T06:02:54.383Z,11.25
2022-08-19T06:05:21.205Z,28.20
2022-08-19T06:07:47.916Z,25.75
2022-08-19T06:10:15.321Z,37.13
2022-08-19T06:12:42.066Z,14.35
2022-08-19T06:15:11.582Z,11.02
2022-08-19T06:17:38.606Z,3.20
2022-08-19T06:20:07.136Z,5.60
2022-08-19T06:22:39.058Z,1.00
2022-08-19T06:25:06.331Z,3.30
2022-08-19T06:27:33.134Z,14.82
2022-08-19T06:29:59.973Z,8.38
2022-08-19T06:32:26.729Z,29.50
2022-08-19T06:34:53.426Z,3.03
2022-08-19T06:37:20.231Z,25.35
2022-08-19T06:39:47.008Z,26.08
2022-08-19T06:42:13.912Z,6.25
2022-08-19T06:44:43.359Z,14.05
2022-08-19T06:47:14.929Z,17.75
2022-08-19T06:49:50.044Z,21.33
2022-08-19T06:52:16.849Z,21.40
2022-08-19T06:54:45.926Z,11.35
2022-08-19T06:57:24.413Z,25.52
2022-08-19T06:59:51.223Z,38.63
2022-08-19T07:04:52.721Z,5.25
2022-08-19T07:07:21.512Z,13.23
2022-08-19T07:09:57.143Z,7.32
2022-08-19T07:12:30.238Z,13.45
2022-08-19T07:14:57.259Z,25.42
2022-08-19T07:17:24.473Z,38.38
2022-08-19T07:19:51.652Z,20.05
2022-08-19T07:22:21.358Z,28.20
2022-08-19T07:24:51.498Z,17.80
2022-08-19T07:27:19.478Z,3.70
2022-08-19T07:29:56.123Z,19.55
2022-08-19T07:32:24.845Z,28.20
2022-08-19T07:34:52.251Z,26.73
2022-08-19T07:37:18.980Z,23.70
2022-08-19T07:39:45.760Z,7.13
2022-08-19T07:42:13.267Z,5.45
2022-08-19T07:47:49.490Z,18.63
2022-08-19T07:49:59.035Z,26.75
2022-08-19T07:52:25.748Z,28.35
2022-08-19T07:54:52.453Z,19.20
2022-08-19T07:57:19.229Z,5.68
2022-08-19T07:59:46.039Z,6.32
2022-08-19T08:02:12.782Z,17.77
2022-08-19T08:04:39.489Z,26.92
2022-08-19T08:07:06.841Z,3.67
2022-08-19T08:09:39.260Z,5.90
2022-08-19T08:12:33.057Z,11.25
2022-08-19T08:15:00.418Z,49.35
2022-08-19T08:17:31.063Z,1.92
2022-08-19T08:20:15.336Z,16.65
2022-08-19T08:22:46.469Z,4.70
2022-08-19T08:25:18.336Z,8.38
2022-08-19T08:27:48.047Z,18.25
2022-08-19T08:30:25.696Z,6.68
2022-08-19T08:33:00.527Z,18.25
2022-08-19T08:35:29.474Z,25.83
2022-08-19T08:37:56.938Z,21.52
2022-08-19T08:40:51.877Z,20.40
2022-08-19T08:43:33.186Z,17.30
2022-08-19T08:46:30.691Z,11.02
2022-08-19T08:49:52.858Z,34.75
2022-08-19T08:52:32.086Z,2.95
2022-08-19T08:55:00.923Z,29.52
2022-08-19T08:57:50.482Z,4.30
2022-08-19T09:00:34.092Z,8.07
2022-08-19T09:03:01.068Z,17.40
2022-08-19T09:05:53.107Z,8.07
2022-08-19T09:08:36.608Z,17.70
2022-08-19T09:11:06.786Z,13.82
2022-08-19T09:14:35.008Z,22.90
2022-08-19T09:17:00.914Z,7.38
2022-08-19T09:19:27.694Z,16.52
2022-08-19T09:21:56.400Z,14.35
2022-08-19T09:24:23.741Z,13.20
2022-08-19T09:26:57.856Z,17.50
2022-08-19T09:29:24.657Z,18.88
2022-08-19T09:31:51.740Z,26.70
2022-08-19T09:34:21.389Z,16.35
2022-08-19T09:36:49.403Z,21.60
2022-08-19T09:39:16.640Z,21.63
2022-08-19T09:41:47.615Z,22.63
2022-08-19T09:44:15.961Z,12.45
2022-08-19T09:46:42.700Z,15.75
2022-08-19T09:49:09.401Z,29.23
2022-08-19T09:51:36.101Z,7.65
2022-08-19T09:54:05.101Z,16.20
2022-08-19T09:56:32.139Z,7.15
2022-08-19T09:58:59.969Z,12.93
2022-08-19T10:01:27.934Z,12.60
2022-08-19T10:03:56.281Z,9.15
2022-08-19T10:06:46.445Z,18.02
2022-08-19T10:09:12.515Z,3.28
2022-08-19T10:11:46.878Z,13.93
2022-08-19T10:14:19.472Z,5.32
2022-08-19T10:16:46.309Z,13.20
2022-08-19T10:19:13.260Z,5.47
2022-08-19T10:21:40.629Z,11.40
2022-08-19T10:24:09.530Z,25.63
2022-08-19T10:26:37.992Z,16.25
2022-08-19T10:29:05.387Z,16.23
2022-08-19T10:32:01.417Z,20.67
2022-08-19T10:34:27.554Z,12.00
2022-08-19T10:36:56.643Z,4.28
2022-08-19T10:39:28.805Z,2.80
2022-08-19T10:41:57.674Z,14.20
2022-08-19T10:44:24.479Z,13.73
2022-08-19T10:46:51.279Z,12.82
2022-08-19T10:49:18.070Z,21.02
2022-08-19T10:51:47.950Z,7.35
2022-08-19T10:54:15.808Z,15.85
2022-08-19T10:56:42.670Z,23.15
2022-08-19T10:59:09.445Z,12.93
2022-08-19T11:01:36.534Z,9.32
2022-08-19T11:04:04.435Z,28.55
2022-08-19T11:06:33.007Z,18.23
2022-08-19T11:08:59.879Z,26.17
2022-08-19T11:11:26.880Z,30.45
2022-08-19T11:13:53.690Z,20.17
2022-08-19T11:16:25.537Z,7.78
2022-08-19T11:18:54.825Z,13.90
2022-08-19T11:21:24.271Z,11.13
2022-08-19T11:23:52.673Z,13.90
2022-08-19T11:26:21.020Z,20.23
2022-08-19T11:28:48.203Z,8.63
2022-08-19T11:31:20.075Z,9.80
2022-08-19T11:33:47.841Z,16.83
2022-08-19T11:36:15.344Z,27.55
2022-08-19T11:38:42.882Z,7.78
2022-08-19T11:41:09.681Z,23.65
2022-08-19T11:43:37.764Z,37.10
2022-08-19T11:46:09.277Z,7.47
2022-08-19T11:48:36.125Z,10.00
2022-08-19T11:51:08.671Z,36.40
2022-08-19T11:53:35.523Z,20.75
2022-08-19T11:56:02.559Z,45.00
2022-08-19T11:58:29.576Z,8.95
2022-08-19T12:00:56.474Z,19.27
2022-08-19T12:03:23.413Z,38.33
2022-08-19T12:05:50.131Z,42.80
2022-08-19T12:08:17.135Z,17.20
2022-08-19T12:10:43.988Z,28.02
2022-08-19T12:13:10.912Z,24.92
2022-08-19T12:15:38.595Z,30.63
2022-08-19T12:18:05.708Z,14.85
2022-08-19T12:20:33.495Z,9.55
2022-08-19T12:23:03.795Z,21.02
2022-08-19T12:25:30.546Z,30.17
2022-08-19T12:27:57.847Z,55.83
2022-08-19T12:30:25.331Z,18.27
2022-08-19T12:32:52.415Z,9.13
2022-08-19T12:35:19.543Z,16.05
2022-08-19T12:37:55.820Z,27.63
2022-08-19T12:40:24.277Z,12.43
2022-08-19T12:42:54.086Z,12.48
2022-08-19T12:45:21.368Z,16.95
2022-08-19T12:47:49.696Z,24.88
2022-08-19T12:50:16.672Z,26.23
2022-08-19T12:52:43.591Z,27.60
2022-08-19T12:55:10.580Z,10.90
2022-08-19T12:57:37.494Z,28.35
2022-08-19T13:00:09.651Z,21.83
2022-08-19T13:02:38.586Z,13.95
2022-08-19T13:05:07.607Z,13.27
2022-08-19T13:07:34.415Z,19.90
2022-08-19T13:10:01.736Z,9.43
2022-08-19T13:12:29.328Z,12.02
2022-08-19T13:14:56.514Z,18.85
2022-08-19T13:17:23.285Z,20.70
2022-08-19T13:19:50.034Z,5.53
2022-08-19T13:22:16.860Z,39.05
2022-08-19T13:24:47.055Z,14.35
2022-08-19T13:27:14.443Z,27.70
2022-08-19T13:29:43.099Z,16.58
2022-08-19T13:32:09.844Z,13.57
2022-08-19T13:34:39.933Z,36.55
2022-08-19T13:37:06.775Z,13.15
2022-08-19T13:39:33.884Z,13.82
2022-08-19T13:42:01.046Z,21.70
2022-08-19T13:44:28.898Z,17.40
2022-08-19T13:46:55.631Z,11.82
2022-08-19T13:49:22.405Z,20.50
2022-08-19T13:51:49.279Z,27.35
2022-08-19T13:54:16.197Z,35.80
2022-08-19T13:56:44.191Z,23.05
2022-08-19T13:59:11.283Z,22.52
2022-08-19T14:01:38.399Z,19.15
2022-08-19T14:04:05.450Z,15.98
2022-08-19T14:06:32.562Z,14.80
2022-08-19T14:08:59.600Z,13.85
2022-08-19T14:11:26.368Z,16.67
2022-08-19T14:13:53.152Z,40.80
2022-08-19T14:16:20.894Z,21.05
2022-08-19T14:18:47.692Z,11.73
2022-08-19T14:21:19.108Z,33.53
2022-08-19T14:23:45.875Z,11.93
2022-08-19T14:26:15.169Z,29.77
2022-08-19T14:28:42.609Z,7.28
2022-08-19T14:31:13.202Z,6.40
2022-08-19T14:33:40.084Z,10.52
2022-08-19T14:36:06.968Z,6.93
2022-08-19T14:38:33.944Z,18.42
2022-08-19T14:41:30.196Z,9.32
2022-08-19T14:43:57.507Z,40.00
2022-08-19T14:46:28.215Z,27.98
2022-08-19T14:48:56.538Z,14.38
2022-08-19T14:51:24.116Z,31.45
2022-08-19T14:53:51.187Z,20.13
2022-08-19T14:56:20.724Z,20.42
2022-08-19T14:58:47.528Z,20.20
2022-08-19T15:01:14.541Z,24.85
2022-08-19T15:03:41.821Z,34.88
2022-08-19T15:06:09.191Z,21.50
2022-08-19T15:08:40.240Z,32.70
2022-08-19T15:11:18.848Z,20.85
2022-08-19T15:13:45.633Z,6.10
2022-08-19T15:16:17.997Z,10.20
2022-08-19T15:18:45.467Z,21.85
2022-08-19T15:21:13.220Z,13.75
2022-08-19T15:23:40.291Z,22.55
2022-08-19T15:26:07.089Z,27.75
2022-08-19T15:28:33.849Z,15.68
2022-08-19T15:31:00.686Z,31.38
2022-08-19T15:33:27.455Z,13.50
2022-08-19T15:35:54.157Z,25.02
2022-08-19T15:38:21.076Z,15.20
2022-08-19T15:40:49.982Z,3.92
2022-08-19T15:43:17.435Z,29.67
2022-08-19T15:45:49.545Z,28.73
2022-08-19T15:48:16.480Z,57.95
2022-08-19T15:50:43.241Z,43.22
2022-08-19T15:53:10.624Z,22.90
2022-08-19T15:55:42.666Z,27.67
2022-08-19T15:58:28.057Z,34.25
2022-08-19T16:01:01.414Z,33.03
2022-08-19T16:03:28.888Z,35.38
2022-08-19T16:05:55.780Z,33.25
2022-08-19T16:08:22.554Z,41.13
2022-08-19T16:10:49.503Z,24.73
2022-08-19T16:13:16.228Z,27.15
2022-08-19T16:15:43.177Z,12.02
2022-08-19T16:18:09.939Z,23.88
2022-08-19T16:20:36.642Z,14.68
2022-08-19T16:23:03.665Z,20.27
2022-08-19T16:25:30.440Z,32.67
2022-08-19T16:28:07.135Z,47.05
2022-08-19T16:30:35.407Z,34.45
2022-08-19T16:33:02.404Z,28.58
2022-08-19T16:35:29.169Z,24.60
2022-08-19T16:37:56.125Z,22.92
2022-08-19T16:40:23.454Z,26.80
2022-08-19T16:42:50.580Z,29.60
2022-08-19T16:45:17.347Z,57.50
2022-08-19T16:47:44.125Z,43.33
2022-08-19T16:50:10.904Z,36.80
2022-08-19T16:52:37.697Z,36.95
2022-08-19T16:55:05.429Z,40.38
2022-08-19T16:57:32.557Z,19.35
2022-08-19T16:59:59.274Z,20.45
2022-08-19T17:02:30.403Z,21.17
2022-08-19T17:04:58.915Z,45.47
2022-08-19T17:07:29.486Z,40.45
2022-08-19T17:10:00.779Z,60.30
2022-08-19T17:12:32.208Z,30.08
2022-08-19T17:15:00.239Z,24.65
2022-08-19T17:17:29.169Z,36.65
2022-08-19T17:19:56.996Z,27.23
2022-08-19T17:22:23.749Z,30.58
2022-08-19T17:24:50.475Z,36.83
2022-08-19T17:27:17.418Z,63.42
2022-08-19T17:29:47.001Z,24.38
2022-08-19T17:32:14.301Z,26.45
2022-08-19T17:34:41.115Z,30.58
2022-08-19T17:37:07.896Z,38.50
2022-08-19T17:39:39.671Z,43.78
2022-08-19T17:44:35.738Z,23.52
2022-08-19T17:47:02.765Z,36.78
2022-08-19T17:49:29.738Z,14.70
2022-08-19T17:51:59.575Z,17.20
2022-08-19T17:54:33.260Z,14.20
2022-08-19T17:57:01.520Z,24.88
2022-08-19T17:59:30.310Z,21.58
2022-08-19T18:01:57.345Z,23.95
2022-08-19T18:04:24.861Z,55.15
2022-08-19T18:06:52.962Z,28.98
2022-08-19T18:09:24.874Z,63.30
2022-08-19T18:11:53.514Z,32.25
2022-08-19T18:14:22.160Z,34.20
2022-08-19T18:16:48.866Z,41.22
2022-08-19T18:19:16.452Z,23.85
2022-08-19T18:21:43.213Z,50.08
2022-08-19T18:24:09.948Z,42.40
2022-08-19T18:26:36.817Z,43.75
2022-08-19T18:29:03.656Z,23.08
2022-08-19T18:31:30.368Z,37.13
2022-08-19T18:33:57.515Z,47.35
2022-08-19T18:36:52.128Z,36.38
2022-08-19T18:39:11.028Z,33.53
2022-08-19T18:41:39.071Z,36.97
2022-08-19T18:44:05.813Z,27.42
2022-08-19T18:46:33.030Z,16.20
2022-08-19T18:49:03.629Z,54.53
2022-08-19T18:51:30.361Z,34.55
2022-08-19T18:53:57.077Z,17.65
2022-08-19T18:56:23.795Z,41.25
2022-08-19T18:58:50.493Z,50.33
2022-08-19T19:01:19.377Z,40.53
2022-08-19T19:03:50.758Z,35.17
2022-08-19T19:06:23.673Z,61.17
2022-08-19T19:08:51.466Z,31.33
2022-08-19T19:11:21.464Z,49.88
2022-08-19T19:13:48.182Z,31.23
2022-08-19T19:16:15.058Z,33.42
2022-08-19T19:18:41.839Z,35.55
2022-08-19T19:21:09.601Z,45.85
2022-08-19T19:23:37.373Z,43.35
2022-08-19T19:26:04.193Z,34.10
2022-08-19T19:28:30.922Z,38.75
2022-08-19T19:30:57.718Z,42.75
2022-08-19T19:33:25.609Z,51.70
2022-08-19T19:35:52.400Z,33.03
2022-08-19T19:38:19.206Z,42.58
2022-08-19T19:40:45.961Z,28.35
2022-08-19T19:43:12.651Z,67.25
2022-08-19T19:45:39.404Z,26.63
2022-08-19T19:48:06.132Z,50.90
2022-08-19T19:50:32.850Z,27.88
2022-08-19T19:52:59.587Z,38.75
2022-08-19T19:55:26.344Z,47.22
2022-08-19T19:57:53.312Z,34.70
2022-08-19T20:00:20.974Z,60.85
2022-08-19T20:02:50.317Z,26.10
2022-08-19T20:05:17.773Z,49.10
2022-08-19T20:07:44.476Z,24.35
2022-08-19T20:10:11.268Z,44.80
2022-08-19T20:12:38.061Z,31.52
2022-08-19T20:15:05.671Z,32.90
2022-08-19T20:17:32.534Z,53.72
2022-08-19T20:19:59.279Z,26.05
2022-08-19T20:22:26.035Z,39.97
2022-08-19T20:24:52.773Z,19.77
2022-08-19T20:27:19.638Z,35.22
2022-08-19T20:29:49.504Z,45.17
2022-08-19T20:32:18.661Z,37.03
2022-08-19T20:34:45.515Z,34.15
2022-08-19T20:37:12.269Z,48.83
2022-08-19T20:39:39.183Z,36.45
2022-08-19T20:42:06.096Z,23.67
2022-08-19T20:44:32.884Z,42.55
2022-08-19T20:47:03.405Z,41.17
2022-08-19T20:49:30.670Z,36.90
2022-08-19T20:51:58.036Z,42.20
2022-08-19T20:54:24.867Z,59.13
2022-08-19T20:56:51.900Z,43.33
2022-08-19T20:59:19.024Z,60.55
2022-08-19T21:01:46.147Z,37.45
2022-08-19T21:04:12.963Z,50.33
2022-08-19T21:06:39.816Z,37.45
2022-08-19T21:09:08.900Z,27.73
2022-08-19T21:11:35.880Z,43.88
2022-08-19T21:14:02.629Z,52.08
2022-08-19T21:16:29.342Z,30.52
2022-08-19T21:18:56.029Z,44.53
2022-08-19T21:21:22.738Z,32.78
2022-08-19T21:23:49.793Z,37.28
2022-08-19T21:26:16.679Z,23.13
2022-08-19T21:28:43.578Z,29.65
2022-08-19T21:31:10.448Z,40.20
2022-08-19T21:33:37.484Z,36.92
2022-08-19T21:36:04.791Z,21.35
2022-08-19T21:38:41.374Z,20.52
2022-08-19T21:41:08.132Z,15.70
2022-08-19T21:43:36.686Z,30.45
2022-08-19T21:46:03.775Z,63.20
2022-08-19T21:48:30.591Z,19.75
2022-08-19T21:50:57.408Z,54.05
2022-08-19T21:53:24.152Z,24.77
2022-08-19T21:55:53.539Z,25.98
2022-08-19T21:58:28.775Z,26.27
2022-08-19T22:00:58.646Z,16.95
2022-08-19T22:03:25.832Z,33.20
2022-08-19T22:05:52.798Z,28.23
2022-08-19T22:08:19.532Z,14.27
2022-08-19T22:10:46.579Z,12.00
2022-08-19T22:13:13.439Z,29.67
2022-08-19T22:15:40.226Z,29.33
2022-08-19T22:18:06.940Z,20.33
2022-08-19T22:20:33.674Z,28.88
2022-08-19T22:23:02.443Z,19.08
2022-08-19T22:25:32.091Z,34.50
2022-08-19T22:28:03.100Z,17.90
2022-08-19T22:30:30.951Z,32.45
2022-08-19T22:33:01.533Z,29.40
2022-08-19T22:35:30.068Z,15.65
2022-08-19T22:37:57.464Z,14.25
2022-08-19T22:40:24.424Z,22.48
2022-08-19T22:42:58.246Z,26.27
2022-08-19T22:45:25.049Z,17.98
2022-08-19T22:47:51.854Z,21.00
2022-08-19T22:50:18.659Z,59.35
2022-08-19T22:52:51.775Z,39.45
2022-08-19T22:55:19.033Z,28.48
2022-08-19T22:57:45.788Z,22.20
2022-08-19T23:00:13.233Z,24.63
2022-08-19T23:02:51.670Z,12.82
2022-08-19T23:05:18.767Z,37.00
2022-08-19T23:07:52.635Z,24.58
2022-08-19T23:10:26.958Z,16.65
2022-08-19T23:12:55.362Z,13.15
2022-08-19T23:15:22.938Z,19.70
2022-08-19T23:17:53.297Z,11.68
2022-08-19T23:20:20.562Z,12.85
2022-08-19T23:22:47.480Z,8.75
2022-08-19T23:25:16.741Z,23.98
2022-08-19T23:27:44.050Z,26.95
2022-08-19T23:30:11.451Z,23.52
2022-08-19T23:32:38.178Z,15.75
2022-08-19T23:35:05.274Z,11.90
2022-08-19T23:37:32.068Z,13.77
2022-08-19T23:39:58.863Z,15.55
2022-08-19T23:42:25.607Z,7.10
2022-08-19T23:44:53.035Z,22.40
2022-08-19T23:47:20.652Z,26.13
2022-08-19T23:49:47.366Z,8.80
2022-08-19T23:52:14.301Z,15.18
2022-08-19T23:54:43.603Z,11.90
2022-08-19T23:57:13.334Z,9.48
2022-08-19T23:59:41.522Z,7.28
